Time,TemperatureF,DewpointF,PressureIn,WindDirection,WindDirectionDegrees,WindSpeedMPH,WindSpeedGustMPH,Humidity,HourlyPrecipIn,Conditions,Clouds,dailyrainin,SoftwareType,DateUTC
2013-03-27 10:12:00,44.0,44.0,30.01,East,97,8.0,11.0,99,-99.99,,,-99.99,,2013-03-27 17:12:00,
2013-03-27 10:22:00,45.0,45.0,30.01,East,96,9.0,14.0,100,-99.99,,,-99.99,,2013-03-27 17:22:00,
2013-03-27 10:32:00,45.0,45.0,30.02,ESE,111,4.0,9.0,99,-99.99,,,-99.99,,2013-03-27 17:32:00,
2013-03-27 10:44:00,46.0,46.0,30.02,ESE,107,7.0,12.0,100,-99.99,,,-99.99,,2013-03-27 17:44:00,
2013-03-27 10:52:00,46.0,46.0,30.02,ESE,106,6.0,12.0,99,-99.99,,,-99.99,,2013-03-27 17:52:00,
2013-03-27 11:02:00,45.0,45.0,30.02,East,98,4.0,9.0,99,-99.99,,,-99.99,,2013-03-27 18:02:00,
2013-03-27 11:12:00,46.0,46.0,30.02,ESE,109,3.0,7.0,99,-99.99,,,-99.99,,2013-03-27 18:12:00,
2013-03-27 11:22:00,46.0,46.0,30.02,ESE,108,5.0,8.0,99,-99.99,,,-99.99,,2013-03-27 18:22:00,
2013-03-27 11:32:00,47.0,46.0,30.02,ESE,110,4.0,9.0,98,-99.99,,,-99.99,,2013-03-27 18:32:00,
2013-03-27 11:42:00,47.0,45.0,30.03,East,99,6.0,10.0,93,-99.99,,,-99.99,,2013-03-27 18:42:00,
2013-03-27 11:52:00,47.0,44.0,30.03,East,94,6.0,9.0,89,-99.99,,,-99.99,,2013-03-27 18:52:00,
2013-03-27 12:02:00,47.0,45.0,30.03,East,99,5.0,9.0,90,-99.99,,,-99.99,,2013-03-27 19:02:00,
2013-03-27 12:12:00,48.0,45.0,30.03,East,98,4.0,6.0,88,-99.99,,,-99.99,,2013-03-27 19:12:00,
2013-03-27 12:21:00,48.0,45.0,30.03,East,92,4.0,6.0,90,-99.99,,,-99.99,,2013-03-27 19:21:00,
2013-03-27 12:32:00,49.0,46.0,30.03,ESE,116,3.0,6.0,90,-99.99,,,-99.99,,2013-03-27 19:32:00,
2013-03-27 12:42:00,48.0,46.0,30.03,SSE,153,2.0,4.0,90,-99.99,,,-99.99,,2013-03-27 19:42:00,
2013-03-27 12:52:00,49.0,46.0,30.03,South,177,2.0,4.0,87,-99.99,,,-99.99,,2013-03-27 19:52:00,
2013-03-27 13:02:00,50.0,45.0,30.03,SSE,167,1.0,5.0,82,-99.99,,,-99.99,,2013-03-27 20:02:00,
2013-03-27 13:12:00,51.0,46.0,30.03,West,275,0.0,3.0,81,-99.99,,,-99.99,,2013-03-27 20:12:00,
2013-03-27 13:22:00,54.0,47.0,30.03,South,180,3.0,7.0,78,-99.99,,,-99.99,,2013-03-27 20:22:00,
2013-03-27 13:32:00,55.0,47.0,30.03,South,174,3.0,8.0,72,-99.99,,,-99.99,,2013-03-27 20:32:00,
2013-03-27 13:42:00,55.0,47.0,30.03,South,187,3.0,7.0,72,-99.99,,,-99.99,,2013-03-27 20:42:00,
2013-03-27 13:52:00,56.0,47.0,30.03,South,181,6.0,11.0,71,-99.99,,,-99.99,,2013-03-27 20:52:00,
2013-03-27 14:02:00,56.0,47.0,30.03,South,186,4.0,8.0,69,-99.99,,,-99.99,,2013-03-27 21:02:00,
2013-03-27 14:12:00,57.0,47.0,30.03,SSW,196,5.0,9.0,68,-99.99,,,-99.99,,2013-03-27 21:12:00,
2013-03-27 14:22:00,58.0,46.0,30.03,South,191,6.0,10.0,65,-99.99,,,-99.99,,2013-03-27 21:22:00,
2013-03-27 14:32:00,58.0,45.0,30.03,South,176,5.0,8.0,62,-99.99,,,-99.99,,2013-03-27 21:32:00,
2013-03-27 14:43:00,58.0,45.0,30.03,South,188,5.0,8.0,62,-99.99,,,-99.99,,2013-03-27 21:43:00,
2013-03-27 14:52:00,58.0,45.0,30.03,South,190,6.0,9.0,62,-99.99,,,-99.99,,2013-03-27 21:52:00,
2013-03-27 15:02:00,56.0,45.0,30.03,South,183,4.0,6.0,64,-99.99,,,-99.99,,2013-03-27 22:02:00,
2013-03-27 15:12:00,57.0,44.0,30.03,SSW,194,2.0,3.0,63,-99.99,,,-99.99,,2013-03-27 22:12:00,
2013-03-27 15:23:00,57.0,45.0,30.03,SSW,192,1.0,4.0,64,-99.99,,,-99.99,,2013-03-27 22:23:00,
2013-03-27 15:32:00,57.0,44.0,30.03,SSE,147,0.0,3.0,61,-99.99,,,-99.99,,2013-03-27 22:32:00,
2013-03-27 15:42:00,57.0,45.0,30.03,SW,234,2.0,3.0,63,-99.99,,,-99.99,,2013-03-27 22:42:00,
2013-03-27 15:52:00,57.0,44.0,30.03,WSW,254,1.0,4.0,61,-99.99,,,-99.99,,2013-03-27 22:52:00,
2013-03-27 16:02:00,57.0,44.0,30.03,South,183,7.0,12.0,62,-99.99,,,-99.99,,2013-03-27 23:02:00,
2013-03-27 16:12:00,57.0,44.0,30.03,West,260,3.0,6.0,62,-99.99,,,-99.99,,2013-03-27 23:12:00,
2013-03-27 16:22:00,57.0,43.0,30.03,WNW,298,5.0,7.0,59,-99.99,,,-99.99,,2013-03-27 23:22:00,
2013-03-27 16:32:00,56.0,40.0,30.03,WNW,292,7.0,9.0,54,-99.99,,,-99.99,,2013-03-27 23:32:00,
2013-03-27 16:42:00,56.0,43.0,30.03,WNW,299,5.0,8.0,61,-99.99,,,-99.99,,2013-03-27 23:42:00,
2013-03-27 16:52:00,56.0,43.0,30.03,WNW,294,7.0,8.0,61,-99.99,,,-99.99,,2013-03-27 23:52:00,
2013-03-27 17:02:00,56.0,42.0,30.03,WNW,288,8.0,11.0,61,-99.99,,,-99.99,,2013-03-28 00:02:00,
2013-03-27 17:12:00,55.0,44.0,30.03,WNW,296,7.0,11.0,65,-99.99,,,-99.99,,2013-03-28 00:12:00,
2013-03-27 17:22:00,55.0,44.0,30.03,WNW,299,7.0,9.0,66,-99.99,,,-99.99,,2013-03-28 00:22:00,
2013-03-27 17:32:00,54.0,43.0,30.03,NW,313,8.0,10.0,66,-99.99,,,-99.99,,2013-03-28 00:32:00,
2013-03-27 17:42:00,54.0,43.0,30.03,NW,317,8.0,9.0,66,-99.99,,,-99.99,,2013-03-28 00:42:00,
2013-03-27 17:52:00,54.0,43.0,30.02,WNW,303,8.0,9.0,66,-99.99,,,-99.99,,2013-03-28 00:52:00,
2013-03-27 18:02:00,53.0,44.0,30.02,WNW,299,6.0,8.0,70,-99.99,,,-99.99,,2013-03-28 01:02:00,
2013-03-27 18:12:00,53.0,44.0,30.03,WNW,299,8.0,9.0,71,-99.99,,,-99.99,,2013-03-28 01:12:00,
2013-03-27 18:22:00,53.0,44.0,30.03,NW,311,8.0,10.0,72,-99.99,,,-99.99,,2013-03-28 01:22:00,
2013-03-27 18:32:00,52.0,45.0,30.03,WNW,298,9.0,10.0,76,-99.99,,,-99.99,,2013-03-28 01:32:00,
2013-03-27 18:42:00,52.0,45.0,30.03,NW,305,9.0,9.0,77,-99.99,,,-99.99,,2013-03-28 01:42:00,
2013-03-27 18:52:00,50.0,45.0,30.04,West,276,11.0,13.0,80,-99.99,,,-99.99,,2013-03-28 01:52:00,
2013-03-27 19:02:00,50.0,44.0,30.04,West,278,12.0,12.0,81,-99.99,,,-99.99,,2013-03-28 02:02:00,
2013-03-27 19:12:00,49.0,44.0,30.04,WNW,289,12.0,13.0,83,-99.99,,,-99.99,,2013-03-28 02:12:00,
2013-03-27 19:22:00,49.0,44.0,30.04,WNW,290,12.0,12.0,83,-99.99,,,-99.99,,2013-03-28 02:22:00,
2013-03-27 19:32:00,48.0,44.0,30.04,WNW,300,12.0,12.0,84,-99.99,,,-99.99,,2013-03-28 02:32:00,
2013-03-27 19:42:00,48.0,44.0,30.04,WNW,300,12.0,12.0,84,-99.99,,,-99.99,,2013-03-28 02:42:00,
2013-03-27 19:52:00,48.0,44.0,30.04,WNW,300,12.0,12.0,84,-99.99,,,-99.99,,2013-03-28 02:52:00,
2013-03-27 20:02:00,47.0,44.0,30.04,WNW,292,9.0,10.0,87,-99.99,,,-99.99,,2013-03-28 03:02:00,
2013-03-27 20:12:00,47.0,44.0,30.04,WNW,295,9.0,10.0,88,-99.99,,,-99.99,,2013-03-28 03:12:00,
2013-03-27 20:22:00,47.0,44.0,30.05,WNW,287,7.0,8.0,89,-99.99,,,-99.99,,2013-03-28 03:22:00,
2013-03-27 20:33:00,46.0,45.0,30.05,West,265,6.0,6.0,94,-99.99,,,-99.99,,2013-03-28 03:33:00,
2013-03-27 20:42:00,46.0,44.0,30.05,West,260,6.0,6.0,93,-99.99,,,-99.99,,2013-03-28 03:42:00,
2013-03-27 20:52:00,46.0,44.0,30.05,West,260,6.0,6.0,90,-99.99,,,-99.99,,2013-03-28 03:52:00,
2013-03-27 21:02:00,46.0,44.0,30.05,West,263,3.0,5.0,91,-99.99,,,-99.99,,2013-03-28 04:02:00,
2013-03-27 21:12:00,47.0,44.0,30.05,WNW,297,0.0,1.0,90,-99.99,,,-99.99,,2013-03-28 04:12:00,
2013-03-27 21:22:00,46.0,43.0,30.05,SSE,151,1.0,1.0,89,-99.99,,,-99.99,,2013-03-28 04:22:00,
2013-03-27 21:32:00,45.0,43.0,30.06,SW,236,3.0,3.0,90,-99.99,,,-99.99,,2013-03-28 04:32:00,
2013-03-27 21:42:00,46.0,43.0,30.06,West,272,4.0,5.0,90,-99.99,,,-99.99,,2013-03-28 04:42:00,
2013-03-27 21:52:00,46.0,43.0,30.06,NW,304,3.0,5.0,91,-99.99,,,-99.99,,2013-03-28 04:52:00,
2013-03-27 22:02:00,46.0,44.0,30.06,West,270,4.0,6.0,91,-99.99,,,-99.99,,2013-03-28 05:02:00,
2013-03-27 22:12:00,46.0,43.0,30.07,WSW,258,5.0,6.0,89,-99.99,,,-99.99,,2013-03-28 05:12:00,
2013-03-27 22:22:00,46.0,43.0,30.07,SW,233,5.0,5.0,89,-99.99,,,-99.99,,2013-03-28 05:22:00,
2013-03-27 22:32:00,46.0,43.0,30.07,SW,235,6.0,6.0,89,-99.99,,,-99.99,,2013-03-28 05:32:00,
2013-03-27 22:42:00,46.0,43.0,30.07,SW,226,6.0,6.0,87,-99.99,,,-99.99,,2013-03-28 05:42:00,
2013-03-27 22:52:00,46.0,42.0,30.07,SW,223,5.0,6.0,87,-99.99,,,-99.99,,2013-03-28 05:52:00,
2013-03-27 23:02:00,46.0,43.0,30.08,SW,216,4.0,6.0,87,-99.99,,,-99.99,,2013-03-28 06:02:00,
2013-03-27 23:12:00,46.0,43.0,30.08,SW,220,3.0,3.0,89,-99.99,,,-99.99,,2013-03-28 06:12:00,
2013-03-27 23:22:00,46.0,43.0,30.08,SW,228,4.0,4.0,90,-99.99,,,-99.99,,2013-03-28 06:22:00,
2013-03-27 23:32:00,45.0,44.0,30.08,WSW,238,4.0,4.0,93,-99.99,,,-99.99,,2013-03-28 06:32:00,
2013-03-27 23:42:00,45.0,44.0,30.08,SW,232,7.0,7.0,95,-99.99,,,-99.99,,2013-03-28 06:42:00,
2013-03-27 23:52:00,45.0,44.0,30.08,SW,219,7.0,7.0,96,-99.99,,,-99.99,,2013-03-28 06:52:00,